createdAt,value
2022-08-22T00:01:14.566Z,93.22
2022-08-22T00:02:48.497Z,87.00
2022-08-22T00:02:52.695Z,85.35
2022-08-22T00:03:09.767Z,89.58
2022-08-22T00:03:10.808Z,91.84
2022-08-22T00:04:07.052Z,93.24
2022-08-22T00:06:52.471Z,93.45
2022-08-22T00:09:31.733Z,93.99
2022-08-22T00:12:35.058Z,93.51
2022-08-22T00:15:43.367Z,93.43
2022-08-22T00:18:33.297Z,93.63
2022-08-22T00:21:14.145Z,93.77
2022-08-22T00:23:58.685Z,93.56
2022-08-22T00:26:45.633Z,93.57
2022-08-22T00:29:19.793Z,93.76
2022-08-22T00:31:54.854Z,94.02
2022-08-22T00:34:31.997Z,94.04
2022-08-22T00:37:21.868Z,94.16
2022-08-22T00:40:03.324Z,94.45
2022-08-22T00:42:51.617Z,94.15
2022-08-22T00:46:02.982Z,94.09
2022-08-22T00:49:11.279Z,94.30
2022-08-22T00:51:55.505Z,94.21
2022-08-22T00:54:23.606Z,94.40
2022-08-22T00:57:14.554Z,94.32
2022-08-22T00:59:56.634Z,94.31
2022-08-22T01:03:09.812Z,94.36
2022-08-22T01:05:56.024Z,94.57
2022-08-22T01:08:53.840Z,94.61
2022-08-22T01:11:35.537Z,94.87
2022-08-22T01:14:35.068Z,94.78
2022-08-22T01:17:47.245Z,94.86
2022-08-22T01:20:52.482Z,94.96
2022-08-22T01:23:40.552Z,95.31
2022-08-22T01:26:28.566Z,95.15
2022-08-22T01:29:10.566Z,95.18
2022-08-22T01:31:56.300Z,95.12
2022-08-22T01:35:08.411Z,95.19
2022-08-22T01:37:51.605Z,95.01
2022-08-22T01:40:47.592Z,94.83
2022-08-22T01:43:59.299Z,94.76
2022-08-22T01:46:47.188Z,94.85
2022-08-22T01:49:15.189Z,94.99
2022-08-22T01:51:51.167Z,95.12
2022-08-22T01:54:55.152Z,95.25
2022-08-22T01:57:25.285Z,95.05
2022-08-22T01:59:58.002Z,95.18
2022-08-22T02:02:44.339Z,95.23
2022-08-22T02:05:51.029Z,95.20
2022-08-22T02:08:45.221Z,95.22
2022-08-22T02:11:35.098Z,94.93
2022-08-22T02:14:28.719Z,95.13
2022-08-22T02:17:20.137Z,95.32
2022-08-22T02:20:20.423Z,95.42
2022-08-22T02:23:04.297Z,95.55
2022-08-22T02:25:51.543Z,95.60
2022-08-22T02:28:57.491Z,95.84
2022-08-22T02:31:28.976Z,95.62
2022-08-22T02:34:01.290Z,95.67
2022-08-22T02:36:41.676Z,95.73
2022-08-22T02:39:18.943Z,95.67
2022-08-22T02:42:08.908Z,95.67
2022-08-22T02:44:42.865Z,95.74
2022-08-22T02:47:33.106Z,95.69
2022-08-22T02:50:07.455Z,96.01
2022-08-22T02:53:27.301Z,96.19
2022-08-22T02:56:06.419Z,96.14
2022-08-22T02:58:49.965Z,96.14
2022-08-22T03:01:33.907Z,96.27
2022-08-22T03:04:21.427Z,96.17
2022-08-22T03:07:05.730Z,96.05
2022-08-22T03:09:40.425Z,95.85
2022-08-22T03:12:36.063Z,96.06
2022-08-22T03:15:09.831Z,95.85
2022-08-22T03:17:48.455Z,95.64
2022-08-22T03:20:45.810Z,95.71
2022-08-22T03:23:24.114Z,95.77
2022-08-22T03:26:14.572Z,95.69
2022-08-22T03:28:58.983Z,96.07
2022-08-22T03:31:30.964Z,96.06
2022-08-22T03:34:17.276Z,96.11
2022-08-22T03:37:08.258Z,96.04
2022-08-22T03:39:55.191Z,96.16
2022-08-22T03:42:35.738Z,96.24
2022-08-22T03:45:21.919Z,96.11
2022-08-22T03:48:27.428Z,96.06
2022-08-22T03:51:10.770Z,96.16
2022-08-22T03:53:52.356Z,96.19
2022-08-22T03:56:54.065Z,96.08
2022-08-22T03:59:56.194Z,96.12
2022-08-22T04:02:41.919Z,96.49
2022-08-22T04:05:25.678Z,96.76
2022-08-22T04:08:11.215Z,96.60
2022-08-22T04:11:08.264Z,96.69
2022-08-22T04:13:56.261Z,96.45
2022-08-22T04:16:46.212Z,96.40
2022-08-22T04:19:25.264Z,96.32
2022-08-22T04:22:08.281Z,96.42
2022-08-22T04:24:56.823Z,96.48
2022-08-22T04:27:32.962Z,96.23
2022-08-22T04:30:19.717Z,96.74
2022-08-22T04:32:54.465Z,96.33
2022-08-22T04:35:37.341Z,95.87
2022-08-22T04:38:18.803Z,95.66
2022-08-22T04:40:50.327Z,95.15
2022-08-22T04:43:54.092Z,95.25
2022-08-22T04:46:38.890Z,95.10
2022-08-22T04:49:26.138Z,95.48
2022-08-22T04:52:04.659Z,95.34
2022-08-22T04:54:46.106Z,95.16
2022-08-22T04:57:27.457Z,95.35
2022-08-22T05:00:03.931Z,94.85
2022-08-22T05:02:37.845Z,94.54
2022-08-22T05:05:16.129Z,95.06
2022-08-22T05:07:53.144Z,94.96
2022-08-22T05:10:32.063Z,94.95
2022-08-22T05:13:08.000Z,94.92
2022-08-22T05:15:44.033Z,94.83
2022-08-22T05:18:29.552Z,94.85
2022-08-22T05:21:03.730Z,94.74
2022-08-22T05:23:44.815Z,94.22
2022-08-22T05:26:14.215Z,93.66
2022-08-22T05:28:53.264Z,92.99
2022-08-22T05:31:28.670Z,92.68
2022-08-22T05:34:14.948Z,92.43
2022-08-22T05:37:17.830Z,92.06
2022-08-22T05:39:54.123Z,91.31
2022-08-22T05:42:32.181Z,91.38
2022-08-22T05:45:11.564Z,91.46
2022-08-22T05:47:46.017Z,91.22
2022-08-22T05:50:20.229Z,90.76
2022-08-22T05:53:40.005Z,90.62
2022-08-22T05:56:10.955Z,90.48
2022-08-22T05:58:39.068Z,91.01
2022-08-22T06:01:33.638Z,90.92
2022-08-22T06:04:13.929Z,89.94
2022-08-22T06:07:26.900Z,89.33
2022-08-22T06:10:01.017Z,89.45
2022-08-22T06:12:37.952Z,89.45
2022-08-22T06:15:12.320Z,89.38
2022-08-22T06:17:46.950Z,89.09
2022-08-22T06:20:20.794Z,88.34
2022-08-22T06:22:54.475Z,87.47
2022-08-22T06:25:31.567Z,87.27
2022-08-22T06:28:13.123Z,87.36
2022-08-22T06:30:45.738Z,87.24
2022-08-22T06:33:21.186Z,87.27
2022-08-22T06:36:11.240Z,87.36
2022-08-22T06:39:17.520Z,87.41
2022-08-22T06:42:05.898Z,87.54
2022-08-22T06:44:38.872Z,87.16
2022-08-22T06:47:16.297Z,86.81
2022-08-22T06:49:45.899Z,86.63
2022-08-22T06:52:21.387Z,86.63
2022-08-22T06:54:58.207Z,86.41
2022-08-22T06:57:34.921Z,85.19
2022-08-22T07:00:11.284Z,84.71
2022-08-22T07:02:56.540Z,84.97
2022-08-22T07:05:34.619Z,85.13
2022-08-22T07:08:12.277Z,84.89
2022-08-22T07:10:46.206Z,85.05
2022-08-22T07:13:16.833Z,84.62
2022-08-22T07:15:54.674Z,84.82
2022-08-22T07:18:29.777Z,84.75
2022-08-22T07:21:04.536Z,84.24
2022-08-22T07:23:35.067Z,84.21
2022-08-22T07:26:40.599Z,83.81
2022-08-22T07:29:28.440Z,83.46
2022-08-22T07:32:11.179Z,82.80
2022-08-22T07:34:52.022Z,82.47
2022-08-22T07:37:42.138Z,82.13
2022-08-22T07:40:25.640Z,82.22
2022-08-22T07:43:28.799Z,82.32
2022-08-22T07:46:14.183Z,82.36
2022-08-22T07:49:08.001Z,82.67
2022-08-22T07:51:40.492Z,81.62
2022-08-22T07:54:12.613Z,81.80
2022-08-22T07:56:52.231Z,81.61
2022-08-22T07:59:22.390Z,81.83
2022-08-22T08:01:54.766Z,81.69
2022-08-22T08:04:29.703Z,81.42
2022-08-22T08:07:02.145Z,79.88
2022-08-22T08:09:34.844Z,79.66
2022-08-22T08:12:08.780Z,79.82
2022-08-22T08:14:41.343Z,79.72
2022-08-22T08:17:23.667Z,79.59
2022-08-22T08:19:54.412Z,79.53
2022-08-22T08:22:27.077Z,79.60
2022-08-22T08:24:59.066Z,79.43
2022-08-22T08:27:50.292Z,79.61
2022-08-22T08:30:34.307Z,79.83
2022-08-22T08:33:24.741Z,80.21
2022-08-22T08:36:05.592Z,80.27
2022-08-22T08:38:51.374Z,79.62
2022-08-22T08:41:53.187Z,79.56
2022-08-22T08:44:50.192Z,79.27
2022-08-22T08:47:33.492Z,77.38
2022-08-22T08:50:12.907Z,77.36
2022-08-22T08:53:03.007Z,77.24
2022-08-22T08:56:03.171Z,76.73
2022-08-22T08:59:13.391Z,76.78
2022-08-22T09:02:00.261Z,77.39
2022-08-22T09:04:49.975Z,77.75
2022-08-22T09:07:27.120Z,77.35
2022-08-22T09:10:23.045Z,77.45
2022-08-22T09:13:11.615Z,77.61
2022-08-22T09:16:12.085Z,77.72
2022-08-22T09:18:49.114Z,77.32
2022-08-22T09:21:44.414Z,77.29
2022-08-22T09:24:52.475Z,76.33
2022-08-22T09:27:31.974Z,75.59
2022-08-22T09:30:12.403Z,76.11
2022-08-22T09:32:57.642Z,75.80
2022-08-22T09:35:50.935Z,76.03
2022-08-22T09:38:48.037Z,75.64
2022-08-22T09:41:44.744Z,75.91
2022-08-22T09:44:18.078Z,75.61
2022-08-22T09:47:24.737Z,75.18
2022-08-22T09:50:18.223Z,75.72
2022-08-22T10:21:22.929Z,70.49
2022-08-22T10:23:54.311Z,69.13
2022-08-22T10:26:38.569Z,68.79
2022-08-22T10:29:18.128Z,69.47
2022-08-22T10:31:59.504Z,69.42
2022-08-22T10:34:34.171Z,69.81
2022-08-22T10:37:32.335Z,69.63
2022-08-22T10:40:24.587Z,70.17
2022-08-22T10:43:00.000Z,70.34
2022-08-22T10:45:37.082Z,70.42
2022-08-22T10:48:08.861Z,69.60
2022-08-22T10:50:52.274Z,69.81
2022-08-22T10:53:37.397Z,69.28
2022-08-22T10:56:37.399Z,68.72
2022-08-22T10:59:18.012Z,70.10
2022-08-22T11:02:14.830Z,70.19
2022-08-22T11:05:19.858Z,68.66
2022-08-22T11:08:15.506Z,68.96
2022-08-22T11:10:45.091Z,68.95
2022-08-22T11:13:27.507Z,68.15
2022-08-22T11:16:46.995Z,68.43
2022-08-22T11:20:28.911Z,69.01
2022-08-22T11:34:42.043Z,68.28
2022-08-22T11:37:23.818Z,68.06
2022-08-22T11:40:23.408Z,67.55
2022-08-22T11:43:26.239Z,66.77
2022-08-22T11:45:58.690Z,67.15
2022-08-22T11:48:47.381Z,66.27
2022-08-22T11:51:37.529Z,66.21
2022-08-22T11:54:20.093Z,66.18
2022-08-22T11:57:10.334Z,67.13
2022-08-22T12:00:29.484Z,67.38
2022-08-22T12:03:13.022Z,66.96
2022-08-22T12:05:41.767Z,67.10
2022-08-22T12:08:21.000Z,67.41
2022-08-22T12:10:56.704Z,67.92
2022-08-22T12:13:46.776Z,68.16
2022-08-22T12:16:28.655Z,67.94
2022-08-22T12:19:15.444Z,67.79
2022-08-22T12:21:46.283Z,67.34
2022-08-22T12:24:32.599Z,67.56
2022-08-22T12:27:30.571Z,67.04
2022-08-22T12:30:13.771Z,67.16
2022-08-22T12:33:04.039Z,66.80
2022-08-22T12:35:47.422Z,67.11
2022-08-22T12:38:34.840Z,67.52
2022-08-22T12:41:46.637Z,66.65
2022-08-22T12:44:19.350Z,66.35
2022-08-22T12:46:56.122Z,65.90
2022-08-22T12:49:30.425Z,65.58
2022-08-22T12:52:28.533Z,65.90
2022-08-22T12:55:09.378Z,66.41
2022-08-22T12:57:50.420Z,66.27
2022-08-22T13:00:35.408Z,65.42
2022-08-22T13:03:11.481Z,65.87
2022-08-22T13:05:44.960Z,65.28
2022-08-22T13:08:39.283Z,65.64
2022-08-22T13:11:22.774Z,65.25
2022-08-22T13:14:00.479Z,64.51
2022-08-22T13:16:48.943Z,64.82
2022-08-22T13:19:23.932Z,65.22
2022-08-22T13:22:04.882Z,66.11
2022-08-22T13:24:52.267Z,66.15
2022-08-22T13:27:26.929Z,65.68
2022-08-22T13:30:02.159Z,65.90
2022-08-22T13:32:44.490Z,66.03
2022-08-22T13:35:51.911Z,66.81
2022-08-22T13:38:48.723Z,67.14
2022-08-22T13:41:34.769Z,67.57
2022-08-22T13:44:06.073Z,68.02
2022-08-22T13:46:44.508Z,68.42
2022-08-22T13:49:42.411Z,68.74
2022-08-22T13:52:29.154Z,69.05
2022-08-22T13:55:29.511Z,69.30
2022-08-22T13:58:12.645Z,69.10
2022-08-22T14:01:06.228Z,68.89
2022-08-22T14:03:48.817Z,68.72
2022-08-22T14:06:38.348Z,68.56
2022-08-22T14:09:32.732Z,68.69
2022-08-22T14:12:19.605Z,68.89
2022-08-22T14:14:54.917Z,68.89
2022-08-22T14:17:42.717Z,69.12
2022-08-22T14:20:32.319Z,69.65
2022-08-22T14:23:13.969Z,69.75
2022-08-22T14:25:44.052Z,70.11
2022-08-22T14:28:29.138Z,70.62
2022-08-22T14:31:08.384Z,70.87
2022-08-22T14:33:49.154Z,71.42
2022-08-22T14:36:23.506Z,71.70
2022-08-22T14:39:17.983Z,71.87
2022-08-22T14:41:57.056Z,71.90
2022-08-22T14:44:36.868Z,72.08
2022-08-22T14:47:48.175Z,72.44
2022-08-22T14:50:11.321Z,72.67
2022-08-22T14:52:44.447Z,72.82
2022-08-22T14:55:21.330Z,72.85
2022-08-22T14:58:05.842Z,73.12
2022-08-22T15:00:39.858Z,73.39
2022-08-22T15:03:11.420Z,73.19
2022-08-22T15:05:53.062Z,73.26
2022-08-22T15:08:24.908Z,73.03
2022-08-22T15:11:14.414Z,73.21
2022-08-22T15:14:12.577Z,72.96
2022-08-22T15:16:55.180Z,72.54
2022-08-22T15:19:25.609Z,72.55
2022-08-22T15:22:14.906Z,72.60
2022-08-22T15:25:14.840Z,72.60
2022-08-22T15:27:58.177Z,72.27
2022-08-22T15:30:47.110Z,72.04
2022-08-22T15:33:32.471Z,71.89
2022-08-22T15:36:12.464Z,71.86
2022-08-22T15:38:46.906Z,72.08
2022-08-22T15:41:22.587Z,72.17
2022-08-22T15:44:09.547Z,72.68
2022-08-22T15:47:24.324Z,73.05
2022-08-22T15:50:02.724Z,73.62
2022-08-22T15:53:06.987Z,73.58
2022-08-22T15:55:37.121Z,73.66
2022-08-22T15:58:13.040Z,73.67
2022-08-22T16:01:02.812Z,73.82
2022-08-22T16:03:34.765Z,73.76
2022-08-22T16:06:07.991Z,73.70
2022-08-22T16:08:36.538Z,73.29
2022-08-22T16:11:04.623Z,73.55
2022-08-22T16:13:43.313Z,73.50
2022-08-22T16:16:26.729Z,73.41
2022-08-22T16:18:54.842Z,73.63
2022-08-22T16:21:22.912Z,73.48
2022-08-22T16:23:54.298Z,73.63
2022-08-22T16:26:31.731Z,73.75
2022-08-22T16:29:00.061Z,73.90
2022-08-22T16:31:56.411Z,74.13
2022-08-22T16:34:32.533Z,74.18
2022-08-22T16:37:04.027Z,74.30
2022-08-22T16:39:47.274Z,74.24
2022-08-22T16:42:19.923Z,74.33
2022-08-22T16:45:05.471Z,74.40
2022-08-22T16:47:34.200Z,74.10
2022-08-22T16:50:06.303Z,74.16
2022-08-22T16:52:37.384Z,74.19
2022-08-22T16:55:29.222Z,74.14
2022-08-22T16:58:07.109Z,74.25
2022-08-22T17:01:05.936Z,74.04
2022-08-22T17:04:15.307Z,74.06
2022-08-22T17:07:02.941Z,74.03
2022-08-22T17:09:49.577Z,74.13
2022-08-22T17:12:48.096Z,74.18
2022-08-22T17:15:40.485Z,74.22
2022-08-22T17:18:44.623Z,74.25
2022-08-22T17:21:26.422Z,74.42
2022-08-22T17:23:54.465Z,74.43
2022-08-22T17:26:50.246Z,74.30
2022-08-22T17:29:38.271Z,74.55
2022-08-22T17:32:15.485Z,74.60
2022-08-22T17:35:02.290Z,75.11
2022-08-22T17:38:01.420Z,75.67
2022-08-22T17:40:51.160Z,76.08
2022-08-22T17:43:49.749Z,76.34
2022-08-22T17:46:36.632Z,76.69
2022-08-22T17:49:16.687Z,77.34
2022-08-22T17:51:56.573Z,77.75
2022-08-22T17:54:29.520Z,78.13
2022-08-22T17:57:13.348Z,78.54
2022-08-22T17:59:58.690Z,78.87
2022-08-22T18:03:00.761Z,78.55
2022-08-22T18:05:38.040Z,77.53
2022-08-22T18:08:37.881Z,76.87
2022-08-22T18:11:40.146Z,76.51
2022-08-22T18:14:24.151Z,76.32
2022-08-22T18:16:54.609Z,76.41
2022-08-22T18:19:50.404Z,76.53
2022-08-22T18:22:30.193Z,76.22
2022-08-22T18:25:22.272Z,76.02
2022-08-22T18:27:56.272Z,75.75
2022-08-22T18:30:36.841Z,75.59
2022-08-22T18:33:31.008Z,75.72
2022-08-22T18:36:28.156Z,75.74
2022-08-22T18:39:22.069Z,75.66
2022-08-22T18:41:59.181Z,75.62
2022-08-22T18:44:35.023Z,75.81
2022-08-22T18:47:21.657Z,75.83
2022-08-22T18:49:58.828Z,76.11
2022-08-22T18:52:31.861Z,76.30
2022-08-22T18:55:19.677Z,76.53
2022-08-22T18:58:13.229Z,76.80
2022-08-22T19:00:51.157Z,77.14
2022-08-22T19:03:36.211Z,77.38
2022-08-22T19:06:13.878Z,77.76
2022-08-22T19:09:20.452Z,77.99
2022-08-22T19:11:51.829Z,78.48
2022-08-22T19:14:27.276Z,78.65
2022-08-22T19:17:16.525Z,79.01
2022-08-22T19:20:42.246Z,79.05
2022-08-22T19:23:32.529Z,79.44
2022-08-22T19:26:34.620Z,79.46
2022-08-22T19:29:12.057Z,79.66
2022-08-22T19:31:44.433Z,79.85
2022-08-22T19:34:29.860Z,79.85
2022-08-22T19:37:32.795Z,79.92
2022-08-22T19:40:10.577Z,80.14
2022-08-22T19:42:41.841Z,80.25
2022-08-22T19:45:22.077Z,80.22
2022-08-22T19:48:14.172Z,80.37
2022-08-22T19:50:43.552Z,80.67
2022-08-22T19:53:27.227Z,80.68
2022-08-22T19:56:13.598Z,80.79
2022-08-22T19:59:20.482Z,80.96
2022-08-22T20:01:58.327Z,81.04
2022-08-22T20:04:44.812Z,81.06
2022-08-22T20:07:50.512Z,81.23
2022-08-22T20:10:21.484Z,81.47
2022-08-22T20:13:05.676Z,81.64
2022-08-22T20:16:05.386Z,81.67
2022-08-22T20:19:06.347Z,81.89
2022-08-22T20:22:00.817Z,82.01
2022-08-22T20:24:40.275Z,82.08
2022-08-22T20:27:24.097Z,82.44
2022-08-22T20:30:30.033Z,82.38
2022-08-22T20:33:10.720Z,82.53
2022-08-22T20:35:54.806Z,82.60
2022-08-22T20:38:32.544Z,82.57
2022-08-22T20:41:21.047Z,82.62
2022-08-22T20:44:02.603Z,82.70
2022-08-22T20:46:57.692Z,82.75
2022-08-22T20:49:37.770Z,82.69
2022-08-22T20:52:21.917Z,82.73
2022-08-22T20:55:31.624Z,82.90
2022-08-22T20:58:06.636Z,82.93
2022-08-22T21:00:42.423Z,82.98
2022-08-22T21:03:22.187Z,83.06
2022-08-22T21:05:53.314Z,82.96
2022-08-22T21:08:24.897Z,83.10
2022-08-22T21:11:21.751Z,83.09
2022-08-22T21:13:50.587Z,83.11
2022-08-22T21:16:31.163Z,83.06
2022-08-22T21:19:03.437Z,83.34
2022-08-22T21:21:34.413Z,83.28
2022-08-22T21:24:05.981Z,83.13
2022-08-22T21:26:46.261Z,83.18
2022-08-22T21:29:14.391Z,83.19
2022-08-22T21:31:59.106Z,83.37
2022-08-22T21:34:42.809Z,83.37
2022-08-22T21:37:15.901Z,83.74
2022-08-22T21:40:00.337Z,83.86
2022-08-22T21:42:36.350Z,84.16
2022-08-22T21:45:09.672Z,83.96
2022-08-22T21:47:42.257Z,83.99
2022-08-22T21:50:13.245Z,84.21
2022-08-22T21:53:12.117Z,84.16
2022-08-22T21:55:43.936Z,84.41
2022-08-22T21:58:18.450Z,84.58
2022-08-22T22:01:24.827Z,84.97
2022-08-22T22:03:53.520Z,85.39
2022-08-22T22:06:21.622Z,85.68
2022-08-22T22:08:50.175Z,85.83
2022-08-22T22:11:18.532Z,86.06
2022-08-22T22:13:46.673Z,86.43
2022-08-22T22:16:23.126Z,86.56
2022-08-22T22:18:51.429Z,86.77
2022-08-22T22:21:19.649Z,86.81
2022-08-22T22:23:49.569Z,86.87
2022-08-22T22:26:21.508Z,87.01
2022-08-22T22:28:50.523Z,87.04
2022-08-22T22:33:59.333Z,87.18
2022-08-22T22:36:27.988Z,87.25
2022-08-22T22:38:56.236Z,87.54
2022-08-22T22:41:25.984Z,87.58
2022-08-22T22:43:55.112Z,87.78
2022-08-22T22:46:27.001Z,87.76
2022-08-22T22:48:59.230Z,87.93
2022-08-22T22:51:28.295Z,87.87
2022-08-22T22:53:57.106Z,87.95
2022-08-22T22:56:25.387Z,88.05
2022-08-22T22:59:01.100Z,88.05
2022-08-22T23:02:03.839Z,88.01
2022-08-22T23:04:33.641Z,88.12
2022-08-22T23:07:02.274Z,88.20
2022-08-22T23:09:38.149Z,88.05
2022-08-22T23:12:12.199Z,88.24
2022-08-22T23:14:40.830Z,88.39
2022-08-22T23:17:09.594Z,88.18
2022-08-22T23:19:39.178Z,88.40
2022-08-22T23:22:08.338Z,88.39
2022-08-22T23:24:39.231Z,88.38
2022-08-22T23:27:09.186Z,88.35
2022-08-22T23:29:41.194Z,88.48
2022-08-22T23:32:10.684Z,88.41
2022-08-22T23:34:44.131Z,88.38
2022-08-22T23:37:19.071Z,88.37
2022-08-22T23:39:47.488Z,88.56
2022-08-22T23:42:18.127Z,88.48
2022-08-22T23:44:47.117Z,88.68
2022-08-22T23:47:15.851Z,88.66
2022-08-22T23:49:44.387Z,88.52
2022-08-22T23:52:13.767Z,88.72
2022-08-22T23:54:42.187Z,88.50
2022-08-22T23:57:11.500Z,88.73
2022-08-22T23:59:48.473Z,88.76
